Time;durP1;ratioP1;P1;durP2;ratioP2;P2;SDS_P1;SDS_P2;PMS_P1;PMS_P2;Temp;Humidity;BMP_temperature;BMP_pressure;BME280_temperature;BME280_humidity;BME280_pressure;Samples;Min_cycle;Max_cycle;Signal;HPM_P1;HPM_P2
2022/06/25 00:00:25;;;;;;;2.85;1.30;;;21.40;99.90;;;;;;4129279;28;20058;-70
2022/06/25 00:02:26;;;;;;;2.17;1.42;;;21.40;99.90;;;;;;4129523;28;20125;-70
2022/06/25 00:06:45;;;;;;;1.30;1.00;;;21.30;99.90;;;;;;4124881;28;20030;-70
2022/06/25 00:08:47;;;;;;;1.83;1.35;;;21.30;99.90;;;;;;4129959;28;20085;-70
2022/06/25 00:10:47;;;;;;;1.38;1.13;;;21.30;99.90;;;;;;4129270;28;20057;-70
2022/06/25 00:12:48;;;;;;;1.20;1.02;;;21.20;99.90;;;;;;4128594;28;20034;-70
2022/06/25 00:14:49;;;;;;;1.33;0.95;;;21.20;99.90;;;;;;4129352;28;20049;-69
2022/06/25 00:16:49;;;;;;;1.58;0.93;;;21.20;99.90;;;;;;4128866;28;20034;-70
2022/06/25 00:18:50;;;;;;;1.45;0.90;;;21.10;99.90;;;;;;4129596;28;20027;-70
2022/06/25 00:20:51;;;;;;;2.60;1.20;;;21.10;99.90;;;;;;4129461;28;20501;-70
2022/06/25 00:22:51;;;;;;;1.67;1.10;;;21.10;99.90;;;;;;4129310;28;20046;-70
2022/06/25 00:24:52;;;;;;;1.88;1.13;;;21.00;99.90;;;;;;4128091;28;20030;-70
2022/06/25 00:26:53;;;;;;;1.58;0.93;;;21.00;99.90;;;;;;4129451;28;20112;-70
2022/06/25 00:28:53;;;;;;;1.67;0.90;;;21.00;99.90;;;;;;4127848;28;20031;-70
2022/06/25 00:30:54;;;;;;;2.00;1.25;;;21.00;99.90;;;;;;4128742;28;20133;-70
2022/06/25 00:32:55;;;;;;;1.15;0.90;;;21.00;99.90;;;;;;4127027;28;20026;-70
2022/06/25 00:34:55;;;;;;;1.33;0.75;;;21.00;99.90;;;;;;4128285;28;20053;-70
2022/06/25 00:36:56;;;;;;;1.60;1.25;;;21.00;99.90;;;;;;4128007;28;20424;-69
2022/06/25 00:38:57;;;;;;;1.58;1.00;;;21.00;99.90;;;;;;4128362;28;20453;-70
2022/06/25 00:40:58;;;;;;;1.00;0.73;;;20.90;99.90;;;;;;4127611;28;20038;-70
2022/06/25 00:42:58;;;;;;;1.00;0.90;;;20.90;99.90;;;;;;4128090;28;20041;-70
2022/06/25 00:44:59;;;;;;;2.50;1.17;;;20.90;99.90;;;;;;4129309;28;20494;-70
2022/06/25 00:47:00;;;;;;;1.17;0.90;;;20.90;99.90;;;;;;4127383;28;20043;-70
2022/06/25 00:49:01;;;;;;;4.55;1.17;;;20.90;99.90;;;;;;4126397;28;20043;-69
2022/06/25 00:51:10;;;;;;;9.05;1.10;;;20.80;99.90;;;;;;4127208;28;21043;-70
2022/06/25 00:53:12;;;;;;;1.15;0.80;;;20.80;99.90;;;;;;4127522;28;20042;-69
2022/06/25 00:55:13;;;;;;;2.27;0.97;;;20.70;99.90;;;;;;4126822;28;20031;-69
2022/06/25 00:57:19;;;;;;;2.58;0.90;;;20.70;99.90;;;;;;4128651;28;20388;-69
2022/06/25 00:59:27;;;;;;;0.95;0.70;;;20.70;99.90;;;;;;4127522;28;20561;-70
2022/06/25 01:01:29;;;;;;;1.63;0.98;;;20.70;99.90;;;;;;4127005;28;20030;-70
2022/06/25 01:03:30;;;;;;;0.63;0.60;;;20.70;99.90;;;;;;4126780;28;20501;-70
2022/06/25 01:05:31;;;;;;;1.95;1.15;;;20.60;99.90;;;;;;4127535;28;20129;-70
2022/06/25 01:07:34;;;;;;;1.92;1.08;;;20.60;99.90;;;;;;4127752;28;20033;-70
2022/06/25 01:09:36;;;;;;;2.83;1.10;;;20.60;99.90;;;;;;4128002;28;20510;-70
2022/06/25 01:11:37;;;;;;;3.20;1.55;;;20.50;99.90;;;;;;4125623;28;20092;-70
2022/06/25 01:13:38;;;;;;;1.50;1.02;;;20.50;99.90;;;;;;4127474;28;20445;-70
2022/06/25 01:15:39;;;;;;;1.27;0.90;;;20.40;99.90;;;;;;4125651;28;20026;-69
2022/06/25 01:17:45;;;;;;;3.83;0.93;;;20.40;99.90;;;;;;4128809;28;20435;-69
2022/06/25 01:19:45;;;;;;;1.40;0.98;;;20.40;99.90;;;;;;4126629;28;20038;-70
2022/06/25 01:21:46;;;;;;;2.67;1.15;;;20.40;99.90;;;;;;4128019;28;20041;-70
2022/06/25 01:23:47;;;;;;;1.83;0.90;;;20.30;99.90;;;;;;4127699;28;20037;-69
2022/06/25 01:25:48;;;;;;;2.25;1.17;;;20.30;99.90;;;;;;4127496;28;20054;-69
2022/06/25 01:27:48;;;;;;;2.25;1.00;;;20.30;99.90;;;;;;4124925;28;20038;-70
2022/06/25 01:29:49;;;;;;;1.73;0.93;;;20.30;99.90;;;;;;4126919;28;20081;-69
2022/06/25 01:31:50;;;;;;;1.52;1.10;;;20.20;99.90;;;;;;4124689;28;20482;-70
2022/06/25 01:33:50;;;;;;;2.08;1.05;;;20.20;99.90;;;;;;4128017;28;20393;-70
2022/06/25 01:35:51;;;;;;;1.85;1.15;;;20.20;99.90;;;;;;4126370;28;20038;-69
2022/06/25 01:37:51;;;;;;;2.83;1.13;;;20.20;99.90;;;;;;4127432;28;20553;-70
2022/06/25 01:39:56;;;;;;;5.05;1.17;;;20.20;99.90;;;;;;4126786;28;20030;-69
2022/06/25 01:41:57;;;;;;;0.93;0.80;;;20.10;99.90;;;;;;4125300;28;20035;-70
2022/06/25 01:43:57;;;;;;;1.60;0.80;;;20.20;99.90;;;;;;4127794;28;20038;-70
2022/06/25 01:45:58;;;;;;;1.40;0.93;;;20.10;99.90;;;;;;4125709;28;20042;-69
2022/06/25 01:48:00;;;;;;;1.70;0.85;;;20.10;99.90;;;;;;4128175;28;20486;-69
2022/06/25 01:50:00;;;;;;;1.23;0.90;;;20.10;99.90;;;;;;4126118;28;20105;-70
2022/06/25 01:52:01;;;;;;;1.90;0.90;;;20.10;99.90;;;;;;4126069;28;20050;-69
2022/06/25 01:54:02;;;;;;;2.33;0.90;;;20.10;99.90;;;;;;4126042;28;20034;-69
2022/06/25 01:56:03;;;;;;;1.00;0.90;;;20.10;99.90;;;;;;4127315;28;20046;-70
2022/06/25 01:58:03;;;;;;;5.20;1.00;;;20.10;99.90;;;;;;4125719;28;20092;-70
2022/06/25 02:00:29;;;;;;;2.25;1.27;;;20.10;99.90;;;;;;4125634;28;20137;-71
2022/06/25 02:02:29;;;;;;;1.00;0.90;;;20.10;99.90;;;;;;4125163;28;20046;-69
2022/06/25 02:04:30;;;;;;;2.35;1.10;;;20.10;99.90;;;;;;4127620;28;20535;-69
2022/06/25 02:06:30;;;;;;;1.60;1.13;;;20.10;99.90;;;;;;4125214;28;20031;-69
2022/06/25 02:08:36;;;;;;;3.10;1.10;;;20.10;99.90;;;;;;4127452;28;20112;-70
2022/06/25 02:10:37;;;;;;;1.55;1.00;;;20.10;99.90;;;;;;4124973;28;20054;-70
2022/06/25 02:12:37;;;;;;;2.00;1.23;;;20.10;99.90;;;;;;4126328;28;20057;-70
2022/06/25 02:14:38;;;;;;;2.25;1.13;;;20.10;99.90;;;;;;4126739;28;20030;-70
2022/06/25 02:16:39;;;;;;;2.90;1.30;;;20.10;99.90;;;;;;4127040;28;20026;-70
2022/06/25 02:18:39;;;;;;;1.45;1.20;;;20.10;99.90;;;;;;4127481;28;20037;-69
2022/06/25 02:20:41;;;;;;;1.98;1.00;;;20.10;99.90;;;;;;4126736;28;20034;-69
2022/06/25 02:22:41;;;;;;;2.17;1.00;;;20.10;99.90;;;;;;4127184;28;20434;-70
2022/06/25 02:24:42;;;;;;;2.78;1.00;;;20.10;99.90;;;;;;4127377;28;20035;-69
2022/06/25 02:26:43;;;;;;;1.85;1.00;;;20.10;99.90;;;;;;4126418;28;20039;-69
2022/06/25 02:28:43;;;;;;;2.20;1.05;;;20.10;99.90;;;;;;4126134;28;20036;-70
2022/06/25 02:30:45;;;;;;;1.55;0.75;;;20.10;99.90;;;;;;4126327;28;20053;-69
2022/06/25 02:32:46;;;;;;;1.00;0.70;;;20.10;99.90;;;;;;4127036;28;20485;-69
2022/06/25 02:34:47;;;;;;;1.55;1.00;;;20.10;99.90;;;;;;4125301;28;20031;-69
2022/06/25 02:36:47;;;;;;;1.63;1.00;;;20.10;99.90;;;;;;4125482;28;20022;-69
2022/06/25 02:38:48;;;;;;;2.30;1.13;;;20.10;99.90;;;;;;4124878;28;20045;-70
2022/06/25 02:40:49;;;;;;;4.25;1.52;;;20.10;99.90;;;;;;4125198;28;20486;-69
2022/06/25 02:42:49;;;;;;;2.33;1.20;;;20.00;99.90;;;;;;4124580;28;20505;-70
2022/06/25 02:44:50;;;;;;;1.30;0.98;;;20.00;99.90;;;;;;4124609;28;20081;-69
2022/06/25 02:46:50;;;;;;;3.53;1.10;;;20.00;99.90;;;;;;4125057;28;20031;-69
2022/06/25 02:48:51;;;;;;;1.80;1.00;;;20.00;99.90;;;;;;4122689;28;20070;-69
2022/06/25 02:50:51;;;;;;;5.15;1.13;;;20.10;99.90;;;;;;4123655;28;20034;-70
2022/06/25 02:52:52;;;;;;;2.25;0.93;;;20.00;99.90;;;;;;4124031;28;20031;-69
2022/06/25 02:54:53;;;;;;;2.60;1.13;;;20.10;99.90;;;;;;4127073;28;20041;-70
2022/06/25 02:59:14;;;;;;;1.55;1.08;;;20.00;99.90;;;;;;4126500;28;20040;-70
2022/06/25 03:01:14;;;;;;;2.33;1.38;;;20.00;99.90;;;;;;4126176;28;20447;-69
2022/06/25 03:03:15;;;;;;;2.35;1.00;;;20.00;99.90;;;;;;4129038;28;20066;-69
2022/06/25 03:05:15;;;;;;;2.08;1.00;;;20.00;99.90;;;;;;4130309;28;20058;-69
2022/06/25 03:07:17;;;;;;;5.72;1.35;;;20.00;99.90;;;;;;4131031;28;20034;-69
2022/06/25 03:09:18;;;;;;;2.38;1.15;;;20.00;99.90;;;;;;4130384;28;20109;-69
2022/06/25 03:11:19;;;;;;;2.88;1.10;;;20.00;99.90;;;;;;4129638;28;20038;-69
2022/06/25 03:13:20;;;;;;;2.63;1.20;;;20.00;99.90;;;;;;4130820;28;20526;-70
2022/06/25 03:15:21;;;;;;;1.85;1.25;;;19.90;99.90;;;;;;4130314;28;20458;-70
2022/06/25 03:17:21;;;;;;;2.35;1.00;;;19.90;99.90;;;;;;4130672;28;20516;-69
2022/06/25 03:19:22;;;;;;;3.95;1.50;;;19.90;99.90;;;;;;4130549;28;20041;-69
2022/06/25 03:21:22;;;;;;;2.65;1.50;;;19.80;99.90;;;;;;4129559;28;20030;-69
2022/06/25 03:23:23;;;;;;;3.10;1.23;;;19.70;99.90;;;;;;4131084;28;20042;-70
2022/06/25 03:25:24;;;;;;;2.75;1.30;;;19.70;99.90;;;;;;4130363;28;20778;-69
2022/06/25 03:27:25;;;;;;;5.05;1.30;;;19.70;99.90;;;;;;4129649;28;20123;-69
2022/06/25 03:29:25;;;;;;;1.95;0.98;;;19.70;99.90;;;;;;4130753;28;20026;-69
2022/06/25 03:31:26;;;;;;;3.55;1.30;;;19.70;99.90;;;;;;4130213;28;20505;-69
2022/06/25 03:33:26;;;;;;;2.65;1.17;;;19.70;99.90;;;;;;4130529;28;20038;-69
2022/06/25 03:35:27;;;;;;;3.08;1.00;;;19.70;99.90;;;;;;4129042;28;20034;-70
2022/06/25 03:37:27;;;;;;;2.15;1.50;;;19.70;99.90;;;;;;4128644;28;20038;-70
2022/06/25 03:39:28;;;;;;;2.60;1.20;;;19.70;99.90;;;;;;4127025;28;20038;-69
2022/06/25 03:41:38;;;;;;;3.05;1.17;;;19.60;99.90;;;;;;4128285;28;20037;-69
2022/06/25 03:43:38;;;;;;;2.40;1.20;;;19.60;99.90;;;;;;4123522;28;20042;-70
2022/06/25 03:45:39;;;;;;;2.33;1.30;;;19.60;99.90;;;;;;4126292;28;20109;-69
2022/06/25 03:47:40;;;;;;;2.13;1.10;;;19.60;99.90;;;;;;4129229;28;20117;-69
2022/06/25 03:49:41;;;;;;;1.80;1.02;;;19.70;99.90;;;;;;4129304;28;20030;-69
2022/06/25 03:51:41;;;;;;;4.43;1.73;;;19.70;99.90;;;;;;4129601;28;20116;-69
2022/06/25 03:53:42;;;;;;;1.88;1.20;;;19.70;99.90;;;;;;4128862;28;20482;-69
2022/06/25 03:55:43;;;;;;;3.10;1.20;;;19.70;99.90;;;;;;4126991;28;20375;-70
2022/06/25 03:57:44;;;;;;;3.08;1.38;;;19.60;99.90;;;;;;4128014;28;20034;-70
2022/06/25 03:59:44;;;;;;;2.83;1.10;;;19.70;99.90;;;;;;4129834;28;20031;-69
2022/06/25 04:01:45;;;;;;;2.92;1.30;;;19.60;99.90;;;;;;4128685;28;20107;-70
2022/06/25 04:03:46;;;;;;;2.65;1.10;;;19.60;99.90;;;;;;4127675;28;20038;-69
2022/06/25 04:05:46;;;;;;;2.33;1.10;;;19.50;99.90;;;;;;4127543;28;20125;-69
2022/06/25 04:07:47;;;;;;;3.25;1.60;;;19.50;99.90;;;;;;4128021;28;20553;-69
2022/06/25 04:09:47;;;;;;;3.67;1.20;;;19.50;99.90;;;;;;4129228;28;20030;-69
2022/06/25 04:11:48;;;;;;;6.20;1.73;;;19.50;99.90;;;;;;4125878;28;20039;-69
2022/06/25 04:13:49;;;;;;;1.85;1.30;;;19.50;99.90;;;;;;4126311;28;20079;-70
2022/06/25 04:15:49;;;;;;;3.92;1.10;;;19.50;99.90;;;;;;4127110;28;20042;-69
2022/06/25 04:17:50;;;;;;;2.53;1.05;;;19.50;99.90;;;;;;4128032;28;20034;-69
2022/06/25 04:19:50;;;;;;;5.40;1.30;;;19.40;99.90;;;;;;4128948;28;20042;-69
2022/06/25 04:21:51;;;;;;;6.38;1.88;;;19.50;99.90;;;;;;4126778;28;20045;-70
2022/06/25 04:23:51;;;;;;;4.80;1.50;;;19.40;99.90;;;;;;4128161;28;20030;-70
2022/06/25 04:25:52;;;;;;;5.60;2.00;;;19.40;99.90;;;;;;4128196;28;20030;-69
2022/06/25 04:30:12;;;;;;;2.47;1.48;;;19.30;99.90;;;;;;4125504;28;20034;-69
2022/06/25 04:32:13;;;;;;;1.80;1.30;;;19.40;99.90;;;;;;4124885;28;20069;-69
2022/06/25 04:34:15;;;;;;;2.35;1.30;;;19.40;99.90;;;;;;4125170;28;20062;-70
2022/06/25 04:36:15;;;;;;;8.35;1.95;;;19.40;99.90;;;;;;4124163;28;20049;-70
2022/06/25 04:38:16;;;;;;;1.77;1.50;;;19.40;99.90;;;;;;4127106;28;20544;-68
2022/06/25 04:40:17;;;;;;;2.05;1.33;;;19.40;99.90;;;;;;4128080;28;20041;-69
2022/06/25 04:42:17;;;;;;;4.70;1.67;;;19.40;99.90;;;;;;4125617;28;20188;-70
2022/06/25 04:44:18;;;;;;;2.88;1.42;;;19.40;99.90;;;;;;4128764;28;20058;-70
2022/06/25 04:46:19;;;;;;;4.72;1.90;;;19.40;99.90;;;;;;4127183;28;20452;-70
2022/06/25 04:48:19;;;;;;;5.18;1.55;;;19.40;99.90;;;;;;4127430;28;21875;-70
2022/06/25 04:50:20;;;;;;;2.33;1.63;;;19.30;99.90;;;;;;4124594;28;20041;-70
2022/06/25 04:52:20;;;;;;;5.45;1.33;;;19.40;99.90;;;;;;4128647;28;20030;-69
2022/06/25 04:54:21;;;;;;;9.18;2.25;;;19.40;99.90;;;;;;4126939;28;20034;-70
2022/06/25 04:56:26;;;;;;;5.45;1.50;;;19.50;99.90;;;;;;4126833;28;20029;-71
2022/06/25 04:58:27;;;;;;;3.75;1.58;;;19.50;99.90;;;;;;4128934;28;20417;-70
2022/06/25 05:00:28;;;;;;;1.70;1.38;;;19.50;99.90;;;;;;4126617;28;20117;-70
2022/06/25 05:02:28;;;;;;;7.53;1.55;;;19.50;99.90;;;;;;4128773;28;20034;-70
2022/06/25 05:04:29;;;;;;;2.78;1.42;;;19.50;99.90;;;;;;4128452;28;20053;-73
2022/06/25 05:06:29;;;;;;;3.67;1.50;;;19.60;99.90;;;;;;4110256;28;20169;-73
2022/06/25 05:08:30;;;;;;;3.15;1.67;;;19.60;99.90;;;;;;4127051;28;20106;-73
2022/06/25 05:10:31;;;;;;;3.55;1.30;;;19.60;99.90;;;;;;4126982;28;20072;-73
2022/06/25 05:14:51;;;;;;;4.70;1.70;;;19.70;99.90;;;;;;4127762;28;20026;-74
2022/06/25 05:16:53;;;;;;;2.03;1.40;;;19.70;99.90;;;;;;4127768;28;20054;-73
2022/06/25 05:18:54;;;;;;;;;;;19.70;99.90;;;;;;4124931;28;20041;-74
2022/06/25 05:20:54;;;;;;;3.78;1.73;;;19.70;99.90;;;;;;4126208;28;19914;-74
2022/06/25 05:22:55;;;;;;;4.65;1.60;;;19.70;99.90;;;;;;4124746;28;20034;-73
2022/06/25 05:24:56;;;;;;;1.92;1.35;;;19.80;99.90;;;;;;4127426;28;20054;-73
2022/06/25 05:26:56;;;;;;;8.55;1.30;;;19.80;99.90;;;;;;4127621;28;20034;-74
2022/06/25 05:28:57;;;;;;;4.20;1.50;;;19.90;99.90;;;;;;4126896;28;20109;-73
2022/06/25 05:30:57;;;;;;;5.47;1.92;;;19.90;99.90;;;;;;4126184;28;20128;-74
2022/06/25 05:32:58;;;;;;;3.35;1.40;;;19.90;99.90;;;;;;4127811;28;20045;-74
2022/06/25 05:34:59;;;;;;;5.60;1.85;;;19.90;99.90;;;;;;4123991;28;20057;-72
2022/06/25 05:37:00;;;;;;;2.22;1.15;;;19.90;99.90;;;;;;4126305;28;20038;-74
2022/06/25 05:39:00;;;;;;;3.50;1.75;;;20.00;99.90;;;;;;4112601;28;20039;-74
2022/06/25 05:41:07;;;;;;;7.40;1.50;;;20.00;99.90;;;;;;4121098;28;20030;-74
2022/06/25 05:43:08;;;;;;;3.35;1.70;;;20.00;99.90;;;;;;4124583;28;20046;-74
2022/06/25 05:45:09;;;;;;;7.70;1.80;;;20.00;99.90;;;;;;4126760;28;20046;-76
2022/06/25 05:47:10;;;;;;;3.17;1.80;;;20.10;99.90;;;;;;4125822;28;20061;-74
2022/06/25 05:49:10;;;;;;;3.95;1.35;;;20.20;99.90;;;;;;4126847;28;20109;-74
2022/06/25 05:51:11;;;;;;;1.85;1.30;;;20.40;99.90;;;;;;4124533;28;20383;-74
2022/06/25 05:53:11;;;;;;;2.35;1.42;;;20.60;99.90;;;;;;4123272;28;20030;-74
2022/06/25 05:55:12;;;;;;;1.42;1.10;;;21.00;99.90;;;;;;4120945;28;20936;-74
2022/06/25 05:57:13;;;;;;;3.80;1.38;;;21.40;99.90;;;;;;4122320;28;20038;-74
2022/06/25 05:59:14;;;;;;;1.98;1.30;;;21.90;99.90;;;;;;4119853;28;20029;-74
2022/06/25 06:01:14;;;;;;;2.58;1.30;;;22.30;99.90;;;;;;4125096;28;20358;-74
2022/06/25 06:03:15;;;;;;;1.73;0.98;;;22.70;99.90;;;;;;4124671;28;20041;-74
2022/06/25 06:05:15;;;;;;;5.03;1.20;;;23.10;99.90;;;;;;4124534;28;20019;-74
2022/06/25 06:07:16;;;;;;;4.30;1.30;;;23.20;99.90;;;;;;4125334;28;20035;-75
2022/06/25 06:09:17;;;;;;;3.38;1.25;;;23.50;99.90;;;;;;4123873;28;20033;-75
2022/06/25 06:11:17;;;;;;;3.13;1.20;;;23.80;99.90;;;;;;4124812;28;20472;-75
2022/06/25 06:13:18;;;;;;;4.10;1.20;;;24.10;99.90;;;;;;4123683;28;20034;-75
2022/06/25 06:15:19;;;;;;;6.47;1.55;;;24.10;99.90;;;;;;4122893;28;20046;-75
2022/06/25 06:17:19;;;;;;;3.47;1.10;;;24.10;99.90;;;;;;4124692;28;20062;-75
2022/06/25 06:19:20;;;;;;;2.83;1.17;;;24.00;99.90;;;;;;4125197;28;20033;-75
2022/06/25 06:21:20;;;;;;;4.53;1.17;;;23.90;99.90;;;;;;4112328;28;20090;-75
2022/06/25 06:23:21;;;;;;;4.70;1.33;;;24.00;99.90;;;;;;4111270;28;20045;-74
2022/06/25 06:25:22;;;;;;;2.28;1.25;;;24.10;99.90;;;;;;4126011;28;20046;-75
2022/06/25 06:27:22;;;;;;;3.33;1.30;;;24.20;99.90;;;;;;4125558;28;20030;-75
2022/06/25 06:29:24;;;;;;;1.83;1.17;;;24.30;99.90;;;;;;4124724;28;20134;-75
2022/06/25 06:31:24;;;;;;;2.78;1.42;;;24.40;99.90;;;;;;4122971;28;20528;-75
2022/06/25 06:33:25;;;;;;;2.75;0.90;;;24.40;99.90;;;;;;4126381;28;20030;-75
2022/06/25 06:35:25;;;;;;;1.70;1.10;;;24.40;99.90;;;;;;4125861;28;20050;-75
2022/06/25 06:37:26;;;;;;;2.15;1.10;;;24.50;99.90;;;;;;4127051;28;20518;-76
2022/06/25 06:39:27;;;;;;;1.45;0.75;;;24.60;99.90;;;;;;4129780;28;20076;-76
2022/06/25 06:41:28;;;;;;;2.55;1.08;;;24.60;99.90;;;;;;4120509;28;20034;-75
2022/06/25 06:43:28;;;;;;;7.18;1.20;;;24.60;99.90;;;;;;4124598;28;20046;-75
2022/06/25 06:45:29;;;;;;;6.20;1.10;;;24.60;99.90;;;;;;4122616;28;20042;-75
2022/06/25 06:47:29;;;;;;;1.80;1.13;;;24.50;99.90;;;;;;4129241;28;20038;-75
2022/06/25 06:49:30;;;;;;;3.20;1.05;;;24.50;99.90;;;;;;4130819;28;20046;-75
2022/06/25 06:51:30;;;;;;;1.95;1.10;;;24.50;99.90;;;;;;4126019;28;20486;-75
2022/06/25 06:53:32;;;;;;;2.83;1.33;;;24.40;99.90;;;;;;4126760;28;20166;-75
2022/06/25 06:55:32;;;;;;;1.77;1.10;;;24.30;99.90;;;;;;4123799;28;20035;-73
2022/06/25 06:57:34;;;;;;;2.88;1.27;;;24.30;99.90;;;;;;4130405;28;20379;-73
2022/06/25 06:59:35;;;;;;;2.25;1.00;;;24.40;99.90;;;;;;4130316;28;20045;-73
2022/06/25 07:01:35;;;;;;;1.85;1.13;;;24.30;99.90;;;;;;4128969;28;20034;-74
2022/06/25 07:03:36;;;;;;;1.27;1.00;;;24.40;99.90;;;;;;4129307;28;20444;-75
2022/06/25 07:05:37;;;;;;;2.95;1.58;;;24.40;99.90;;;;;;4130678;28;20121;-74
2022/06/25 07:07:37;;;;;;;3.42;1.30;;;24.30;99.90;;;;;;4130729;28;20030;-74
2022/06/25 07:09:38;;;;;;;1.85;0.93;;;24.30;99.90;;;;;;4130323;28;20089;-74
2022/06/25 07:11:38;;;;;;;1.85;1.17;;;24.30;99.90;;;;;;4125400;28;20125;-74
2022/06/25 07:13:39;;;;;;;2.67;0.95;;;24.20;99.90;;;;;;4130238;28;20112;-74
2022/06/25 07:15:40;;;;;;;2.85;1.00;;;24.20;99.90;;;;;;4128680;28;20122;-74
2022/06/25 07:17:40;;;;;;;2.03;1.10;;;24.20;99.90;;;;;;4130883;28;20031;-72
2022/06/25 07:19:41;;;;;;;3.28;1.25;;;24.30;99.90;;;;;;4129561;28;20390;-71
2022/06/25 07:21:42;;;;;;;1.95;0.95;;;24.30;99.90;;;;;;4128906;28;20564;-75
2022/06/25 07:23:42;;;;;;;1.27;0.90;;;24.40;99.90;;;;;;4129267;28;20038;-70
2022/06/25 07:25:43;;;;;;;2.45;1.30;;;24.50;99.90;;;;;;4128977;28;20034;-70
2022/06/25 07:27:44;;;;;;;1.63;0.90;;;24.50;99.90;;;;;;4128636;28;20031;-68
2022/06/25 07:29:45;;;;;;;1.85;1.00;;;24.60;99.90;;;;;;4128779;28;20054;-69
2022/06/25 07:31:46;;;;;;;2.08;0.70;;;24.60;99.90;;;;;;4127841;28;20041;-68
2022/06/25 07:33:46;;;;;;;2.55;1.02;;;24.70;99.90;;;;;;4124615;28;20055;-69
2022/06/25 07:35:47;;;;;;;2.00;1.17;;;24.70;99.90;;;;;;4129827;28;20449;-69
2022/06/25 07:37:48;;;;;;;2.55;0.70;;;24.80;99.90;;;;;;4130411;28;20452;-69
2022/06/25 07:39:48;;;;;;;1.85;0.80;;;24.90;99.90;;;;;;4129862;28;20038;-69
2022/06/25 07:41:49;;;;;;;2.35;0.80;;;24.90;99.90;;;;;;4129151;28;20117;-70
2022/06/25 07:43:49;;;;;;;2.67;1.13;;;25.00;99.90;;;;;;4119774;28;20050;-71
2022/06/25 07:45:51;;;;;;;2.70;1.30;;;25.10;99.90;;;;;;4127594;28;20030;-70
2022/06/25 07:47:51;;;;;;;3.70;0.80;;;25.00;99.90;;;;;;4128901;28;20113;-70
2022/06/25 07:52:11;;;;;;;1.73;0.75;;;25.10;99.90;;;;;;4128327;28;20057;-71
2022/06/25 07:54:12;;;;;;;3.80;1.20;;;25.10;99.90;;;;;;4129260;28;20121;-69
2022/06/25 07:56:13;;;;;;;2.42;0.70;;;25.10;99.90;;;;;;4129870;28;20038;-71
2022/06/25 07:58:13;;;;;;;2.55;0.93;;;25.10;99.90;;;;;;4131504;28;20053;-70
2022/06/25 08:00:14;;;;;;;4.90;1.33;;;25.20;99.90;;;;;;4128282;28;20057;-69
2022/06/25 08:02:15;;;;;;;4.50;1.23;;;25.20;99.60;;;;;;4129870;28;20437;-71
2022/06/25 08:04:16;;;;;;;5.05;0.88;;;25.20;98.90;;;;;;4129860;28;20114;-70
2022/06/25 08:06:17;;;;;;;2.53;0.95;;;25.20;99.00;;;;;;4129681;28;20022;-70
2022/06/25 08:08:17;;;;;;;2.03;0.90;;;25.30;99.50;;;;;;4130115;28;20042;-70
2022/06/25 08:10:18;;;;;;;2.45;1.15;;;25.40;99.90;;;;;;4128343;28;20081;-71
2022/06/25 08:12:19;;;;;;;2.28;0.90;;;25.40;99.10;;;;;;4129562;28;20042;-71
2022/06/25 08:14:19;;;;;;;2.72;0.80;;;25.40;98.30;;;;;;4128810;28;20030;-70
2022/06/25 08:16:21;;;;;;;3.67;1.10;;;25.30;97.70;;;;;;4124811;28;20553;-71
2022/06/25 08:18:22;;;;;;;2.65;1.00;;;25.30;98.70;;;;;;4129851;28;20121;-70
2022/06/25 08:20:23;;;;;;;2.22;0.70;;;25.30;98.00;;;;;;4126879;28;20398;-71
2022/06/25 08:22:24;;;;;;;2.15;0.70;;;25.20;98.30;;;;;;4129159;28;20026;-70
2022/06/25 08:24:24;;;;;;;1.55;0.90;;;25.30;98.90;;;;;;4127698;28;20104;-70
2022/06/25 08:26:25;;;;;;;3.25;1.15;;;25.30;99.00;;;;;;4128613;28;20042;-70
2022/06/25 08:28:26;;;;;;;1.70;0.70;;;25.30;97.00;;;;;;4128777;28;20066;-70
2022/06/25 08:30:27;;;;;;;1.95;0.98;;;25.30;97.30;;;;;;4126788;28;20034;-70
2022/06/25 08:32:27;;;;;;;1.48;0.80;;;25.30;98.10;;;;;;4128647;28;20058;-69
2022/06/25 08:34:28;;;;;;;2.28;1.05;;;25.40;97.50;;;;;;4126861;28;20034;-69
2022/06/25 08:36:28;;;;;;;3.05;1.10;;;25.40;97.80;;;;;;4128084;28;20035;-70
2022/06/25 08:38:29;;;;;;;2.10;0.90;;;25.30;96.90;;;;;;4127288;28;20475;-70
2022/06/25 08:40:30;;;;;;;1.23;0.68;;;25.20;97.10;;;;;;4126905;28;20498;-70
2022/06/25 08:42:30;;;;;;;2.47;0.68;;;25.20;96.30;;;;;;4123016;28;20410;-70
2022/06/25 08:44:31;;;;;;;1.63;0.90;;;25.10;97.10;;;;;;4124965;28;20037;-70
2022/06/25 08:46:33;;;;;;;3.30;0.82;;;25.10;97.50;;;;;;4126748;28;20035;-70
2022/06/25 08:48:35;;;;;;;1.65;0.60;;;25.10;96.70;;;;;;4123079;28;20535;-70
2022/06/25 08:50:36;;;;;;;1.23;0.60;;;25.00;97.20;;;;;;4124646;28;20031;-70
2022/06/25 08:52:37;;;;;;;3.20;0.90;;;25.00;95.90;;;;;;4126042;28;20073;-70
2022/06/25 08:54:39;;;;;;;1.27;0.70;;;24.90;96.50;;;;;;4124929;28;20027;-70
2022/06/25 08:56:41;;;;;;;3.47;1.17;;;24.90;97.30;;;;;;4125944;28;20030;-71
2022/06/25 08:58:44;;;;;;;1.10;0.52;;;24.90;96.90;;;;;;4126581;28;22075;-70
2022/06/25 09:00:45;;;;;;;1.33;0.55;;;24.90;98.30;;;;;;4125964;28;20049;-70
2022/06/25 09:02:46;;;;;;;1.23;0.70;;;25.10;98.20;;;;;;4127385;28;20041;-70
2022/06/25 09:04:47;;;;;;;2.78;0.90;;;25.10;96.40;;;;;;4127468;28;20485;-70
2022/06/25 09:06:50;;;;;;;2.50;0.52;;;25.20;96.70;;;;;;4126684;28;20046;-70
2022/06/25 09:09:10;;;;;;;1.77;1.00;;;25.30;97.10;;;;;;4130221;28;20516;-70
2022/06/25 09:11:11;;;;;;;0.63;0.50;;;25.30;97.00;;;;;;4126480;28;20046;-70
2022/06/25 09:13:13;;;;;;;2.35;1.10;;;25.40;95.80;;;;;;4127392;28;20580;-71
2022/06/25 09:15:21;;;;;;;1.75;0.68;;;25.40;96.90;;;;;;4111634;28;20523;-71
2022/06/25 09:17:21;;;;;;;2.33;0.77;;;25.50;96.20;;;;;;4125928;28;20034;-70
2022/06/25 09:19:30;;;;;;;1.63;0.60;;;25.50;96.20;;;;;;4127812;28;20045;-69
2022/06/25 09:21:40;;;;;;;1.17;0.50;;;25.40;95.90;;;;;;4127015;28;20049;-70
2022/06/25 09:24:03;;;;;;;1.00;0.52;;;25.30;96.10;;;;;;4126058;28;20035;-70
2022/06/25 09:26:09;;;;;;;1.35;0.80;;;25.30;96.20;;;;;;4123459;28;20050;-70
2022/06/25 09:28:28;;;;;;;2.97;0.52;;;25.40;96.60;;;;;;4126244;28;20039;-70
2022/06/25 09:30:31;;;;;;;1.77;0.50;;;25.40;95.60;;;;;;4126523;28;20066;-70
2022/06/25 09:32:41;;;;;;;1.10;0.55;;;25.40;95.20;;;;;;4128655;28;20055;-70
2022/06/25 09:34:42;;;;;;;0.77;0.30;;;25.40;96.00;;;;;;4127646;28;20551;-70
2022/06/25 09:36:42;;;;;;;1.63;0.57;;;25.60;95.30;;;;;;4125101;28;20030;-70
2022/06/25 09:38:49;;;;;;;0.73;0.30;;;25.60;95.30;;;;;;4126941;28;20023;-70
2022/06/25 09:40:56;;;;;;;0.63;0.32;;;25.70;95.10;;;;;;4127395;28;20031;-70
2022/06/25 09:42:58;;;;;;;2.58;0.50;;;25.80;95.00;;;;;;4127869;28;20494;-71
2022/06/25 09:45:11;;;;;;;2.70;0.80;;;25.90;95.00;;;;;;4128135;28;20037;-70
2022/06/25 09:47:13;;;;;;;1.95;0.70;;;26.00;95.40;;;;;;4127078;28;20041;-71
2022/06/25 09:49:24;;;;;;;0.70;0.50;;;25.90;93.10;;;;;;4128231;28;20034;-71
2022/06/25 09:51:26;;;;;;;1.00;0.70;;;25.90;93.00;;;;;;4123462;28;20046;-70
2022/06/25 09:53:27;;;;;;;1.60;0.60;;;26.00;92.60;;;;;;4127607;28;20030;-71
2022/06/25 09:55:30;;;;;;;0.80;0.60;;;26.10;92.90;;;;;;4123588;28;20069;-70
2022/06/25 09:57:31;;;;;;;1.63;0.85;;;26.10;92.70;;;;;;4127149;28;20489;-71
2022/06/25 09:59:34;;;;;;;0.50;0.30;;;26.00;94.20;;;;;;4127290;28;20037;-70
2022/06/25 10:01:34;;;;;;;1.40;0.63;;;26.00;95.10;;;;;;4130222;28;20723;-71
2022/06/25 10:03:36;;;;;;;4.47;0.77;;;26.00;94.00;;;;;;4125475;28;20038;-71
2022/06/25 10:05:40;;;;;;;2.08;0.55;;;26.10;92.50;;;;;;4126225;28;20694;-71
2022/06/25 10:08:01;;;;;;;1.85;0.70;;;26.20;92.90;;;;;;4125630;28;20146;-71
2022/06/25 10:10:02;;;;;;;1.67;0.98;;;26.20;92.20;;;;;;4127033;28;20039;-71
2022/06/25 10:12:04;;;;;;;3.47;0.60;;;26.30;94.30;;;;;;4122245;28;20093;-71
2022/06/25 10:14:05;;;;;;;2.40;0.88;;;26.30;94.80;;;;;;4127358;28;20038;-71
2022/06/25 10:16:06;;;;;;;1.13;0.55;;;26.40;91.70;;;;;;4125807;28;20066;-70
2022/06/25 10:18:11;;;;;;;2.78;0.70;;;26.40;90.50;;;;;;4125069;28;20166;-71
2022/06/25 10:20:14;;;;;;;2.65;1.00;;;26.50;92.30;;;;;;4123929;28;20057;-72
2022/06/25 10:22:15;;;;;;;3.17;1.15;;;26.50;91.80;;;;;;4127208;28;20033;-71
2022/06/25 10:24:16;;;;;;;3.60;0.77;;;26.50;91.70;;;;;;4126007;28;20493;-70
2022/06/25 10:26:18;;;;;;;1.83;0.77;;;26.50;92.00;;;;;;4125911;28;20038;-70
2022/06/25 10:28:31;;;;;;;2.05;0.93;;;26.50;90.90;;;;;;4125659;28;20050;-70
2022/06/25 10:30:52;;;;;;;1.48;0.70;;;26.60;93.00;;;;;;4123590;28;20117;-71
2022/06/25 10:32:56;;;;;;;1.35;0.50;;;26.50;92.20;;;;;;4125935;28;20478;-70
2022/06/25 10:35:01;;;;;;;1.88;0.75;;;26.60;93.20;;;;;;4126424;28;20026;-70
2022/06/25 10:37:02;;;;;;;0.73;0.65;;;26.60;91.90;;;;;;4125274;28;20066;-71
2022/06/25 10:39:22;;;;;;;2.70;0.93;;;26.70;92.20;;;;;;4128716;28;20041;-71
2022/06/25 10:43:48;;;;;;;2.10;0.77;;;26.70;90.60;;;;;;4125399;28;20039;-71
2022/06/25 10:45:48;;;;;;;0.98;0.68;;;26.80;89.90;;;;;;4126087;28;20421;-71
2022/06/25 10:47:54;;;;;;;2.70;1.20;;;26.90;90.20;;;;;;4125358;28;20405;-70